createdAt,value
2022-12-03T00:00:27.146Z,100437.06
2022-12-03T00:02:56.735Z,100441.50
2022-12-03T00:05:26.350Z,100432.38
2022-12-03T00:07:55.923Z,100445.94
2022-12-03T00:10:25.625Z,100452.03
2022-12-03T00:12:55.101Z,100455.84
2022-12-03T00:15:24.626Z,100452.47
2022-12-03T00:17:53.328Z,100459.34
2022-12-03T00:20:24.928Z,100443.47
2022-12-03T00:22:54.421Z,100451.25
2022-12-03T00:25:23.913Z,100463.56
2022-12-03T00:27:52.617Z,100454.88
2022-12-03T00:30:22.127Z,100455.91
2022-12-03T00:32:51.572Z,100460.91
2022-12-03T00:35:21.035Z,100460.16
2022-12-03T00:37:50.558Z,100467.25
2022-12-03T00:40:20.081Z,100465.19
2022-12-03T00:42:49.598Z,100463.72
2022-12-03T00:45:19.043Z,100473.34
2022-12-03T00:47:48.522Z,100461.66
2022-12-03T00:50:18.162Z,100467.25
2022-12-03T00:52:47.895Z,100468.47
2022-12-03T00:55:18.262Z,100464.06
2022-12-03T00:57:47.785Z,100466.50
2022-12-03T01:00:17.856Z,100462.41
2022-12-03T01:02:47.335Z,100466.91
2022-12-03T01:05:17.021Z,100465.06
2022-12-03T01:07:47.671Z,100473.19
2022-12-03T01:10:17.761Z,100468.69
2022-12-03T01:12:47.261Z,100464.88
2022-12-03T01:15:17.074Z,100465.25
2022-12-03T01:17:46.566Z,100459.03
2022-12-03T01:20:15.340Z,100463.50
2022-12-03T01:22:44.812Z,100454.50
2022-12-03T01:25:14.499Z,100460.81
2022-12-03T01:27:44.056Z,100459.94
2022-12-03T01:30:14.829Z,100466.38
2022-12-03T01:32:44.298Z,100472.25
2022-12-03T01:35:13.772Z,100471.16
2022-12-03T01:37:43.303Z,100470.19
2022-12-03T01:40:16.785Z,100472.34
2022-12-03T01:42:46.374Z,100479.72
2022-12-03T01:45:24.268Z,100480.31
2022-12-03T01:47:53.813Z,100478.66
2022-12-03T01:50:33.967Z,100482.38
2022-12-03T01:53:05.191Z,100486.78
2022-12-03T01:55:34.765Z,100491.94
2022-12-03T01:58:05.047Z,100483.78
2022-12-03T02:00:34.651Z,100482.88
2022-12-03T02:03:17.584Z,100484.53
2022-12-03T02:05:47.272Z,100468.56
2022-12-03T02:08:40.231Z,100475.78
2022-12-03T02:11:33.055Z,100476.13
2022-12-03T02:14:14.585Z,100473.22
2022-12-03T02:16:44.960Z,100476.72
2022-12-03T02:19:32.147Z,100475.88
2022-12-03T02:22:28.246Z,100483.94
2022-12-03T02:25:32.088Z,100476.81
2022-12-03T02:28:03.717Z,100481.38
2022-12-03T02:30:34.564Z,100479.63
2022-12-03T02:33:04.401Z,100478.88
2022-12-03T02:35:36.819Z,100475.13
2022-12-03T02:38:23.013Z,100479.91
2022-12-03T02:40:58.505Z,100478.66
2022-12-03T02:43:28.268Z,100485.47
2022-12-03T02:46:02.027Z,100478.00
2022-12-03T02:48:37.580Z,100479.50
2022-12-03T02:51:11.082Z,100482.06
2022-12-03T02:53:46.265Z,100486.38
2022-12-03T02:56:26.315Z,100491.78
2022-12-03T02:59:02.320Z,100482.22
2022-12-03T03:01:32.186Z,100477.78
2022-12-03T03:04:03.422Z,100485.19
2022-12-03T03:06:32.932Z,100479.41
2022-12-03T03:09:03.258Z,100476.91
2022-12-03T03:11:33.035Z,100481.34
2022-12-03T03:14:04.224Z,100477.16
2022-12-03T03:16:35.038Z,100481.31
2022-12-03T03:19:04.688Z,100476.91
2022-12-03T03:21:34.888Z,100472.66
2022-12-03T03:24:06.255Z,100474.50
2022-12-03T03:26:35.686Z,100476.13
2022-12-03T03:29:05.208Z,100488.22
2022-12-03T03:31:34.792Z,100490.19
2022-12-03T03:34:04.444Z,100500.13
2022-12-03T03:36:34.620Z,100489.31
2022-12-03T03:39:06.860Z,100487.28
2022-12-03T03:41:36.519Z,100485.53
2022-12-03T03:44:09.191Z,100486.59
2022-12-03T03:46:39.188Z,100492.94
2022-12-03T03:49:09.741Z,100484.13
2022-12-03T03:51:39.940Z,100486.66
2022-12-03T03:54:09.738Z,100493.75
2022-12-03T03:56:39.537Z,100486.66
2022-12-03T03:59:09.269Z,100482.94
2022-12-03T04:01:39.141Z,100485.56
2022-12-03T04:04:24.731Z,100481.13
2022-12-03T04:06:54.315Z,100476.00
2022-12-03T04:09:23.785Z,100477.88
2022-12-03T04:12:11.991Z,100476.13
2022-12-03T04:14:40.669Z,100471.97
2022-12-03T04:17:10.139Z,100462.75
2022-12-03T04:19:39.568Z,100470.81
2022-12-03T04:22:27.651Z,100474.22
2022-12-03T04:25:16.492Z,100472.53
2022-12-03T04:28:04.761Z,100469.69
2022-12-03T04:30:34.269Z,100476.94
2022-12-03T04:33:22.539Z,100472.00
2022-12-03T04:35:52.370Z,100484.00
2022-12-03T04:38:21.924Z,100476.06
2022-12-03T04:41:06.337Z,100480.22
2022-12-03T04:43:56.261Z,100477.75
2022-12-03T04:46:25.754Z,100480.09
2022-12-03T04:48:55.241Z,100480.25
2022-12-03T04:51:23.921Z,100477.88
2022-12-03T04:53:53.407Z,100478.66
2022-12-03T04:56:22.882Z,100479.91
2022-12-03T04:58:52.418Z,100479.53
2022-12-03T05:01:22.135Z,100478.66
2022-12-03T05:03:51.740Z,100479.63
2022-12-03T05:06:21.486Z,100484.81
2022-12-03T05:08:50.989Z,100490.19
2022-12-03T05:11:20.500Z,100486.38
2022-12-03T05:13:51.348Z,100491.47
2022-12-03T05:16:20.919Z,100480.44
2022-12-03T05:18:50.499Z,100479.72
2022-12-03T05:21:20.041Z,100480.38
2022-12-03T05:23:50.257Z,100483.72
2022-12-03T05:26:19.720Z,100478.59
2022-12-03T05:28:49.469Z,100483.97
2022-12-03T05:31:18.995Z,100481.25
2022-12-03T05:33:48.568Z,100474.38
2022-12-03T05:36:18.351Z,100479.56
2022-12-03T05:38:47.811Z,100479.63
2022-12-03T05:41:35.989Z,100479.91
2022-12-03T05:44:03.737Z,100481.63
2022-12-03T05:46:33.734Z,100477.00
2022-12-03T05:49:02.495Z,100484.06
2022-12-03T05:51:32.002Z,100486.47
2022-12-03T05:54:01.505Z,100485.72
2022-12-03T05:56:30.935Z,100486.44
2022-12-03T05:59:00.416Z,100496.44
2022-12-03T06:01:29.929Z,100498.06
2022-12-03T06:03:59.462Z,100496.13
2022-12-03T06:06:28.984Z,100505.31
2022-12-03T06:08:58.318Z,100507.59
2022-12-03T06:11:29.961Z,100510.34
2022-12-03T06:13:59.590Z,100511.31
2022-12-03T06:16:29.289Z,100514.94
2022-12-03T06:18:58.866Z,100521.81
2022-12-03T06:21:28.299Z,100521.16
2022-12-03T06:23:57.755Z,100519.50
2022-12-03T06:26:27.220Z,100506.88
2022-12-03T06:28:56.821Z,100515.00
2022-12-03T06:31:26.305Z,100521.91
2022-12-03T06:33:55.815Z,100513.16
2022-12-03T06:36:27.786Z,100514.31
2022-12-03T06:38:57.236Z,100523.75
2022-12-03T06:41:26.727Z,100513.09
2022-12-03T06:43:56.176Z,100520.34
2022-12-03T06:46:25.687Z,100519.56
2022-12-03T06:48:55.182Z,100524.66
2022-12-03T06:51:24.683Z,100523.84
2022-12-03T06:53:54.166Z,100522.84
2022-12-03T06:56:23.868Z,100520.13
2022-12-03T06:58:53.836Z,100506.38
2022-12-03T07:01:23.430Z,100512.88
2022-12-03T07:03:53.435Z,100512.28
2022-12-03T07:06:23.069Z,100521.66
2022-12-03T07:08:53.576Z,100523.31
2022-12-03T07:11:32.175Z,100526.94
2022-12-03T07:14:05.776Z,100520.22
2022-12-03T07:16:35.801Z,100511.78
2022-12-03T07:19:06.963Z,100514.50
2022-12-03T07:21:36.610Z,100519.81
2022-12-03T07:24:06.801Z,100518.19
2022-12-03T07:26:36.556Z,100527.47
2022-12-03T07:29:06.160Z,100524.56
2022-12-03T07:31:35.875Z,100529.69
2022-12-03T07:34:05.461Z,100533.16
2022-12-03T07:36:35.040Z,100536.78
2022-12-03T07:39:05.043Z,100533.81
2022-12-03T07:41:34.476Z,100526.31
2022-12-03T07:44:06.631Z,100519.69
2022-12-03T07:46:39.601Z,100521.63
2022-12-03T07:49:09.423Z,100531.25
2022-12-03T07:51:39.295Z,100530.63
2022-12-03T07:54:08.894Z,100535.78
2022-12-03T07:56:37.606Z,100541.84
2022-12-03T07:59:07.127Z,100541.38
2022-12-03T08:01:36.746Z,100538.31
2022-12-03T08:04:06.323Z,100535.28
2022-12-03T08:06:34.224Z,100541.91
2022-12-03T08:09:03.791Z,100525.13
2022-12-03T08:11:34.265Z,100544.16
2022-12-03T08:14:20.840Z,100539.31
2022-12-03T08:16:50.557Z,100536.41
2022-12-03T08:19:20.113Z,100529.28
2022-12-03T08:21:49.668Z,100536.22
2022-12-03T08:24:21.596Z,100528.75
2022-12-03T08:26:51.156Z,100530.75
2022-12-03T08:29:21.010Z,100538.41
2022-12-03T08:31:55.359Z,100531.44
2022-12-03T08:34:31.743Z,100542.88
2022-12-03T08:37:18.784Z,100537.09
2022-12-03T08:39:51.233Z,100539.72
2022-12-03T08:42:42.611Z,100541.75
2022-12-03T08:45:32.858Z,100542.75
2022-12-03T08:48:35.099Z,100555.06
2022-12-03T08:51:26.814Z,100545.81
2022-12-03T08:54:11.614Z,100549.00
2022-12-03T08:56:42.636Z,100552.66
2022-12-03T08:59:45.581Z,100548.72
2022-12-03T09:02:34.204Z,100535.78
2022-12-03T09:05:23.055Z,100535.78
2022-12-03T09:07:52.889Z,100528.69
2022-12-03T09:10:22.387Z,100531.53
2022-12-03T09:12:51.909Z,100544.06
2022-12-03T09:15:21.389Z,100544.88
2022-12-03T09:17:50.968Z,100541.75
2022-12-03T09:20:20.712Z,100540.66
2022-12-03T09:22:50.241Z,100539.59
2022-12-03T09:25:19.735Z,100546.41
2022-12-03T09:27:49.891Z,100554.28
2022-12-03T09:30:19.538Z,100555.84
2022-12-03T09:32:49.070Z,100549.13
2022-12-03T09:35:18.822Z,100545.00
2022-12-03T09:37:46.743Z,100545.06
2022-12-03T09:40:16.306Z,100538.00
2022-12-03T09:42:46.314Z,100535.69
2022-12-03T09:45:17.401Z,100534.19
2022-12-03T09:47:49.619Z,100534.41
2022-12-03T09:50:26.981Z,100528.00
2022-12-03T09:53:01.641Z,100534.63
2022-12-03T09:55:31.896Z,100525.31
2022-12-03T09:58:01.450Z,100515.63
2022-12-03T10:00:31.684Z,100523.53
2022-12-03T10:03:05.599Z,100517.59
2022-12-03T10:05:35.767Z,100519.50
2022-12-03T10:08:13.741Z,100513.78
2022-12-03T10:10:43.575Z,100510.66
2022-12-03T10:13:32.596Z,100497.91
2022-12-03T10:16:02.522Z,100506.94
2022-12-03T10:18:39.975Z,100500.59
2022-12-03T10:21:38.865Z,100492.78
2022-12-03T10:24:31.621Z,100484.03
2022-12-03T10:27:25.371Z,100470.41
2022-12-03T10:30:04.918Z,100476.16
2022-12-03T10:32:50.998Z,100475.50
2022-12-03T10:35:25.638Z,100472.47
2022-12-03T10:38:24.609Z,100481.75
2022-12-03T10:41:27.844Z,100476.97
2022-12-03T10:44:26.131Z,100474.03
2022-12-03T10:47:12.939Z,100477.63
2022-12-03T10:49:43.188Z,100471.41
2022-12-03T10:52:25.908Z,100480.91
2022-12-03T10:54:56.208Z,100474.00
2022-12-03T10:57:26.100Z,100478.88
2022-12-03T10:59:55.540Z,100485.13
2022-12-03T11:02:25.911Z,100474.97
2022-12-03T11:04:56.192Z,100470.81
2022-12-03T11:07:26.409Z,100466.06
2022-12-03T11:09:55.969Z,100467.72
2022-12-03T11:12:29.454Z,100464.78
2022-12-03T11:15:05.243Z,100461.13
2022-12-03T11:17:51.348Z,100457.03
2022-12-03T11:20:22.785Z,100456.53
2022-12-03T11:22:59.063Z,100449.00
2022-12-03T11:25:27.638Z,100446.44
2022-12-03T11:28:13.983Z,100433.22
2022-12-03T11:30:49.369Z,100449.78
2022-12-03T11:33:41.485Z,100443.06
2022-12-03T11:36:14.230Z,100445.34
2022-12-03T11:38:55.087Z,100441.22
2022-12-03T11:41:35.895Z,100443.81
2022-12-03T11:44:33.151Z,100443.06
2022-12-03T11:47:14.707Z,100431.38
2022-12-03T11:49:48.008Z,100427.06
2022-12-03T11:52:32.316Z,100423.00
2022-12-03T11:55:19.416Z,100418.75
2022-12-03T11:57:48.176Z,100420.28
2022-12-03T12:00:23.211Z,100418.19
2022-12-03T12:02:57.021Z,100414.53
2022-12-03T12:05:33.571Z,100415.75
2022-12-03T12:08:04.164Z,100406.41
2022-12-03T12:10:49.339Z,100410.78
2022-12-03T12:13:37.537Z,100401.94
2022-12-03T12:16:08.623Z,100407.19
2022-12-03T12:18:55.014Z,100400.47
2022-12-03T12:21:48.283Z,100395.22
2022-12-03T12:24:48.406Z,100395.03
2022-12-03T12:27:51.151Z,100383.66
2022-12-03T12:30:23.826Z,100385.63
2022-12-03T12:33:19.918Z,100396.78
2022-12-03T12:35:49.714Z,100389.25
2022-12-03T12:38:21.694Z,100391.94
2022-12-03T12:40:51.519Z,100386.94
2022-12-03T12:43:29.601Z,100388.47
2022-12-03T12:46:45.949Z,100391.16
2022-12-03T12:49:14.678Z,100380.78
2022-12-03T12:51:49.595Z,100386.44
2022-12-03T12:54:19.541Z,100373.94
2022-12-03T12:56:51.298Z,100377.34
2022-12-03T12:59:23.294Z,100380.38
2022-12-03T13:01:52.108Z,100386.34
2022-12-03T13:04:24.470Z,100389.81
2022-12-03T13:06:54.675Z,100387.09
2022-12-03T13:09:28.001Z,100390.31
2022-12-03T13:12:07.534Z,100376.81
2022-12-03T13:14:37.886Z,100375.16
2022-12-03T13:17:24.639Z,100378.09
2022-12-03T13:20:07.868Z,100374.53
2022-12-03T13:22:40.668Z,100365.00
2022-12-03T13:28:28.555Z,100380.88
2022-12-03T13:31:33.184Z,100379.25
2022-12-03T13:34:02.823Z,100374.00
2022-12-03T13:36:44.035Z,100382.31
2022-12-03T13:39:23.659Z,100377.13
2022-12-03T13:42:16.694Z,100380.66
2022-12-03T13:44:49.930Z,100380.63
2022-12-03T13:47:22.833Z,100371.38
2022-12-03T13:49:59.049Z,100384.28
2022-12-03T13:52:33.614Z,100376.75
2022-12-03T13:55:06.915Z,100373.56
2022-12-03T13:57:36.362Z,100377.56
2022-12-03T14:00:07.338Z,100373.97
2022-12-03T14:02:36.876Z,100378.16
2022-12-03T14:05:07.264Z,100378.91
2022-12-03T14:07:38.716Z,100374.72
2022-12-03T14:10:12.625Z,100370.81
2022-12-03T14:12:42.217Z,100372.84
2022-12-03T14:15:12.081Z,100372.59
2022-12-03T14:17:41.858Z,100370.91
2022-12-03T14:20:12.288Z,100381.38
2022-12-03T14:22:41.825Z,100395.13
2022-12-03T14:25:11.352Z,100386.34
2022-12-03T14:27:40.832Z,100392.97
2022-12-03T14:30:11.411Z,100387.78
2022-12-03T14:32:40.969Z,100379.88
2022-12-03T14:35:10.731Z,100386.31
2022-12-03T14:37:40.225Z,100387.25
2022-12-03T14:40:09.231Z,100390.72
2022-12-03T14:42:38.788Z,100383.50
2022-12-03T14:45:09.423Z,100383.84
2022-12-03T14:47:39.049Z,100380.88
2022-12-03T14:50:14.319Z,100382.47
2022-12-03T14:52:43.484Z,100380.09
2022-12-03T14:55:11.432Z,100385.25
2022-12-03T14:57:40.927Z,100385.22
2022-12-03T15:00:12.701Z,100389.94
2022-12-03T15:02:42.339Z,100388.19
2022-12-03T15:05:11.996Z,100392.09
2022-12-03T15:07:42.952Z,100397.00
2022-12-03T15:10:11.314Z,100403.06
2022-12-03T15:12:42.688Z,100395.84
2022-12-03T15:15:16.918Z,100400.88
2022-12-03T15:17:45.892Z,100397.81
2022-12-03T15:20:15.735Z,100397.97
2022-12-03T15:22:46.136Z,100396.72
2022-12-03T15:25:14.067Z,100396.66
2022-12-03T15:27:44.479Z,100395.34
2022-12-03T15:30:16.288Z,100397.03
2022-12-03T15:32:45.892Z,100406.00
2022-12-03T15:35:19.998Z,100400.28
2022-12-03T15:37:49.700Z,100410.72
2022-12-03T15:40:19.312Z,100410.97
2022-12-03T15:42:48.979Z,100408.50
2022-12-03T15:45:18.992Z,100406.69
2022-12-03T15:47:46.841Z,100413.53
2022-12-03T15:50:16.657Z,100417.09
2022-12-03T15:52:46.241Z,100404.47
2022-12-03T15:55:16.501Z,100416.25
2022-12-03T15:57:47.066Z,100410.81
2022-12-03T16:00:18.472Z,100410.47
2022-12-03T16:02:52.665Z,100405.00
2022-12-03T16:05:22.829Z,100406.91
2022-12-03T16:07:52.419Z,100409.09
2022-12-03T16:10:22.155Z,100406.16
2022-12-03T16:12:51.755Z,100405.53
2022-12-03T16:15:26.749Z,100402.00
2022-12-03T16:17:56.919Z,100399.41
2022-12-03T16:20:26.500Z,100398.13
2022-12-03T16:22:56.175Z,100404.94
2022-12-03T16:25:25.727Z,100402.63
2022-12-03T16:27:56.591Z,100406.31
2022-12-03T16:30:26.148Z,100404.53
2022-12-03T16:32:56.594Z,100411.56
2022-12-03T16:35:27.109Z,100415.34
2022-12-03T16:37:56.723Z,100411.94
2022-12-03T16:40:26.560Z,100411.78
2022-12-03T16:42:56.232Z,100406.03
2022-12-03T16:46:00.922Z,100407.94
2022-12-03T16:48:30.885Z,100413.25
2022-12-03T16:51:00.454Z,100414.91
2022-12-03T16:53:30.084Z,100416.63
2022-12-03T16:56:00.663Z,100405.41
2022-12-03T16:58:31.168Z,100411.59
2022-12-03T17:01:01.953Z,100411.66
2022-12-03T17:03:34.276Z,100412.28
2022-12-03T17:06:05.215Z,100405.38
2022-12-03T17:08:34.806Z,100402.44
2022-12-03T17:11:04.801Z,100399.66
2022-12-03T17:13:34.351Z,100399.81
2022-12-03T17:16:05.199Z,100398.75
2022-12-03T17:18:34.838Z,100394.25
2022-12-03T17:21:04.635Z,100393.38
2022-12-03T17:23:41.811Z,100393.97
2022-12-03T17:26:11.469Z,100385.41
2022-12-03T17:28:41.056Z,100380.31
2022-12-03T17:31:12.101Z,100387.88
2022-12-03T17:33:40.237Z,100385.00
2022-12-03T17:36:11.065Z,100383.22
2022-12-03T17:38:39.559Z,100383.53
2022-12-03T17:41:07.782Z,100385.63
2022-12-03T17:43:38.233Z,100389.59
2022-12-03T17:46:08.919Z,100396.19
2022-12-03T17:48:40.590Z,100390.84
2022-12-03T17:51:10.721Z,100387.19
2022-12-03T17:53:40.330Z,100392.63
2022-12-03T17:56:09.949Z,100392.78
2022-12-03T17:58:39.600Z,100398.97
2022-12-03T18:01:10.574Z,100394.75
2022-12-03T18:03:40.562Z,100394.94
2022-12-03T18:06:10.166Z,100397.69
2022-12-03T18:08:39.816Z,100401.13
2022-12-03T18:11:09.456Z,100407.56
2022-12-03T18:13:39.088Z,100410.13
2022-12-03T18:16:07.303Z,100405.63
2022-12-03T18:18:36.957Z,100391.25
2022-12-03T18:21:06.963Z,100392.09
2022-12-03T18:23:38.543Z,100386.00
2022-12-03T18:26:07.200Z,100395.63
2022-12-03T18:28:35.109Z,100393.97
2022-12-03T18:31:15.548Z,100392.19
2022-12-03T18:33:43.567Z,100386.06
2022-12-03T18:36:22.663Z,100396.28
2022-12-03T18:38:56.200Z,100399.78
2022-12-03T18:41:27.124Z,100396.22
2022-12-03T18:43:57.620Z,100395.19
2022-12-03T18:49:19.313Z,100403.09
2022-12-03T18:51:48.329Z,100396.19
2022-12-03T18:54:19.102Z,100399.00
2022-12-03T18:56:49.636Z,100398.25
2022-12-03T18:59:19.243Z,100401.78
2022-12-03T19:01:48.944Z,100393.75
2022-12-03T19:04:18.593Z,100398.28
2022-12-03T19:06:49.156Z,100397.72
2022-12-03T19:09:17.291Z,100395.75
2022-12-03T19:11:45.164Z,100383.44
2022-12-03T19:14:14.745Z,100399.31
2022-12-03T19:16:44.795Z,100399.41
2022-12-03T19:19:12.731Z,100398.53
2022-12-03T19:21:42.409Z,100399.41
2022-12-03T19:24:28.295Z,100405.75
2022-12-03T19:26:58.039Z,100410.31
2022-12-03T19:29:27.683Z,100404.16
2022-12-03T19:31:55.553Z,100405.03
2022-12-03T19:34:25.434Z,100406.84
2022-12-03T19:36:55.941Z,100414.75
2022-12-03T19:39:24.298Z,100417.34
2022-12-03T19:41:54.008Z,100411.88
2022-12-03T19:44:23.665Z,100422.38
2022-12-03T19:46:53.346Z,100420.00
2022-12-03T19:49:23.702Z,100421.22
2022-12-03T19:51:53.506Z,100429.28
2022-12-03T19:54:24.143Z,100429.28
2022-12-03T19:56:54.603Z,100423.19
2022-12-03T19:59:24.228Z,100413.38
2022-12-03T20:01:53.980Z,100419.63
2022-12-03T20:04:23.699Z,100416.16
2022-12-03T20:06:54.140Z,100418.16
2022-12-03T20:09:22.719Z,100410.31
2022-12-03T20:11:53.952Z,100414.81
2022-12-03T20:14:24.487Z,100412.94
2022-12-03T20:16:55.082Z,100408.38
2022-12-03T20:19:26.877Z,100412.00
2022-12-03T20:22:02.336Z,100416.22
2022-12-03T20:24:32.447Z,100410.22
2022-12-03T20:27:03.076Z,100420.53
2022-12-03T20:29:32.800Z,100415.59
2022-12-03T20:32:04.122Z,100418.28
2022-12-03T20:34:36.032Z,100421.47
2022-12-03T20:37:07.227Z,100418.16
2022-12-03T20:39:36.859Z,100416.91
2022-12-03T20:42:06.537Z,100412.41
2022-12-03T20:44:38.420Z,100422.22
2022-12-03T20:47:08.014Z,100418.69
2022-12-03T20:49:41.692Z,100415.97
2022-12-03T20:52:12.381Z,100417.47
2022-12-03T20:54:42.063Z,100418.16
2022-12-03T20:57:11.773Z,100420.91
2022-12-03T20:59:42.051Z,100412.84
2022-12-03T21:02:12.829Z,100412.66
2022-12-03T21:04:43.381Z,100411.84
2022-12-03T21:07:13.034Z,100404.81
2022-12-03T21:09:43.445Z,100406.81
2022-12-03T21:12:13.969Z,100406.41
2022-12-03T21:14:41.811Z,100408.53
2022-12-03T21:17:12.387Z,100404.06
2022-12-03T21:19:40.199Z,100402.25
2022-12-03T21:22:08.253Z,100406.88
2022-12-03T21:24:37.886Z,100403.25
2022-12-03T21:27:05.684Z,100409.63
2022-12-03T21:29:33.483Z,100405.03
2022-12-03T21:32:03.078Z,100394.94
2022-12-03T21:34:36.107Z,100401.06
2022-12-03T21:37:06.052Z,100404.56
2022-12-03T21:39:35.864Z,100404.88
2022-12-03T21:42:35.505Z,100409.41
2022-12-03T21:44:55.166Z,100409.31
2022-12-03T21:47:24.924Z,100410.56
2022-12-03T21:49:54.850Z,100414.16
2022-12-03T21:52:24.754Z,100418.88
2022-12-03T21:54:54.999Z,100413.50
2022-12-03T21:57:24.552Z,100420.47
2022-12-03T21:59:56.079Z,100413.09
2022-12-03T22:02:28.188Z,100413.03
2022-12-03T22:04:57.842Z,100418.53
2022-12-03T22:07:27.535Z,100410.50
2022-12-03T22:09:57.371Z,100407.88
2022-12-03T22:12:27.760Z,100413.09
2022-12-03T22:14:57.493Z,100406.84
2022-12-03T22:17:28.041Z,100410.81
2022-12-03T22:19:57.690Z,100414.19
2022-12-03T22:22:27.298Z,100404.34
2022-12-03T22:24:57.675Z,100401.56
2022-12-03T22:27:27.240Z,100408.97
2022-12-03T22:29:57.112Z,100404.00
2022-12-03T22:32:26.800Z,100409.94
2022-12-03T22:34:56.285Z,100415.28
2022-12-03T22:37:25.770Z,100408.50
2022-12-03T22:39:55.334Z,100410.16
2022-12-03T22:42:25.132Z,100409.47
2022-12-03T22:44:54.689Z,100403.06
2022-12-03T22:47:24.314Z,100411.84
2022-12-03T22:49:54.161Z,100401.75
2022-12-03T22:52:23.899Z,100412.88
2022-12-03T22:54:53.521Z,100402.72
2022-12-03T22:57:23.136Z,100402.66
2022-12-03T22:59:52.943Z,100406.09
2022-12-03T23:02:22.851Z,100403.47
2022-12-03T23:04:56.110Z,100401.75
2022-12-03T23:07:25.795Z,100400.81
2022-12-03T23:09:55.757Z,100401.56
2022-12-03T23:12:25.690Z,100393.69
2022-12-03T23:14:55.420Z,100383.34
2022-12-03T23:17:25.015Z,100391.97
2022-12-03T23:19:54.939Z,100395.97
2022-12-03T23:22:24.693Z,100396.06
2022-12-03T23:24:54.316Z,100395.00
2022-12-03T23:27:24.698Z,100390.66
2022-12-03T23:29:54.588Z,100386.44
2022-12-03T23:32:24.465Z,100392.75
2022-12-03T23:34:54.606Z,100384.81
2022-12-03T23:37:24.226Z,100381.38
2022-12-03T23:39:54.086Z,100381.22
2022-12-03T23:42:24.507Z,100377.78
2022-12-03T23:44:54.122Z,100383.28
2022-12-03T23:47:24.287Z,100380.66
2022-12-03T23:49:54.021Z,100373.53
2022-12-03T23:52:24.520Z,100371.84
2022-12-03T23:54:54.126Z,100368.34
2022-12-03T23:57:23.709Z,100370.97
2022-12-03T23:59:53.617Z,100365.00
